createdAt,value
2022-11-29T00:01:37.480Z,2.94
2022-11-29T00:04:07.519Z,2.92
2022-11-29T00:06:35.720Z,2.89
2022-11-29T00:09:08.490Z,2.90
2022-11-29T00:11:55.880Z,2.87
2022-11-29T00:14:24.764Z,2.83
2022-11-29T00:16:54.717Z,2.82
2022-11-29T00:19:22.675Z,2.78
2022-11-29T00:21:50.018Z,2.84
2022-11-29T00:24:18.024Z,2.80
2022-11-29T00:26:45.032Z,2.80
2022-11-29T00:29:13.299Z,2.77
2022-11-29T00:31:41.866Z,2.74
2022-11-29T00:34:11.649Z,2.73
2022-11-29T00:36:38.840Z,2.78
2022-11-29T00:39:06.901Z,2.72
2022-11-29T00:41:34.014Z,2.72
2022-11-29T00:44:01.267Z,2.77
2022-11-29T00:46:28.355Z,2.76
2022-11-29T00:48:55.671Z,2.74
2022-11-29T00:51:22.873Z,2.75
2022-11-29T00:53:50.169Z,2.80
2022-11-29T00:56:17.469Z,2.80
2022-11-29T00:58:44.779Z,2.78
2022-11-29T01:01:12.142Z,2.78
2022-11-29T01:03:39.960Z,2.75
2022-11-29T01:06:13.398Z,2.76
2022-11-29T01:08:43.448Z,2.79
2022-11-29T01:11:27.701Z,2.76
2022-11-29T01:13:59.000Z,2.78
2022-11-29T01:16:30.455Z,2.78
2022-11-29T01:19:00.572Z,2.80
2022-11-29T01:21:27.605Z,2.78
2022-11-29T01:23:57.542Z,2.77
2022-11-29T01:26:27.972Z,2.78
2022-11-29T01:28:56.662Z,2.78
2022-11-29T01:31:29.768Z,2.75
2022-11-29T01:33:59.533Z,2.72
2022-11-29T01:36:27.711Z,2.77
2022-11-29T01:38:55.302Z,2.77
2022-11-29T01:41:30.689Z,2.77
2022-11-29T01:44:00.574Z,2.74
2022-11-29T01:46:30.861Z,2.70
2022-11-29T01:49:07.804Z,2.71
2022-11-29T01:51:37.297Z,2.71
2022-11-29T01:54:05.799Z,2.67
2022-11-29T01:56:34.742Z,2.67
2022-11-29T01:59:08.801Z,2.70
2022-11-29T02:01:37.506Z,2.67
2022-11-29T02:04:06.002Z,2.67
2022-11-29T02:06:33.808Z,2.66
2022-11-29T02:09:01.255Z,2.65
2022-11-29T02:11:56.182Z,2.60
2022-11-29T02:14:26.451Z,2.52
2022-11-29T02:17:35.620Z,2.51
2022-11-29T02:20:05.742Z,2.45
2022-11-29T02:22:47.975Z,2.44
2022-11-29T02:25:37.489Z,2.40
2022-11-29T02:28:10.750Z,2.32
2022-11-29T02:30:53.336Z,2.27
2022-11-29T02:33:54.315Z,2.22
2022-11-29T02:36:50.116Z,2.19
2022-11-29T02:39:32.346Z,2.13
2022-11-29T02:42:15.693Z,2.08
2022-11-29T02:45:00.838Z,2.03
2022-11-29T02:47:44.076Z,1.99
2022-11-29T02:50:13.751Z,2.02
2022-11-29T02:53:18.608Z,2.00
2022-11-29T02:55:56.083Z,1.97
2022-11-29T02:58:26.422Z,1.98
2022-11-29T03:01:40.331Z,1.97
2022-11-29T03:04:23.464Z,1.93
2022-11-29T03:06:56.758Z,1.94
2022-11-29T03:09:46.782Z,1.94
2022-11-29T03:12:13.685Z,1.94
2022-11-29T03:14:40.913Z,1.96
2022-11-29T03:17:20.235Z,1.99
2022-11-29T03:20:09.506Z,1.96
2022-11-29T03:23:04.051Z,2.00
2022-11-29T03:25:42.536Z,1.98
2022-11-29T03:28:38.648Z,1.99
2022-11-29T03:31:14.223Z,1.97
2022-11-29T03:33:48.529Z,1.99
2022-11-29T03:36:40.032Z,2.01
2022-11-29T03:39:17.318Z,2.02
2022-11-29T03:41:51.697Z,2.05
2022-11-29T03:44:22.644Z,2.06
2022-11-29T03:47:07.239Z,2.08
2022-11-29T03:49:46.613Z,2.08
2022-11-29T03:52:27.218Z,2.13
2022-11-29T03:54:57.191Z,2.15
2022-11-29T03:57:42.426Z,2.16
2022-11-29T04:00:12.923Z,2.18
2022-11-29T04:03:09.580Z,2.20
2022-11-29T04:05:48.593Z,2.17
2022-11-29T04:08:21.803Z,2.22
2022-11-29T04:11:13.906Z,2.19
2022-11-29T04:14:02.527Z,2.22
2022-11-29T04:16:42.206Z,2.23
2022-11-29T04:19:37.494Z,2.25
2022-11-29T04:22:47.847Z,2.22
2022-11-29T04:25:39.220Z,2.22
2022-11-29T04:28:37.082Z,2.25
2022-11-29T04:31:25.223Z,2.21
2022-11-29T04:34:24.738Z,2.25
2022-11-29T04:37:19.993Z,2.20
2022-11-29T04:40:08.792Z,2.20
2022-11-29T04:42:57.632Z,2.24
2022-11-29T04:45:44.444Z,2.22
2022-11-29T04:48:20.675Z,2.20
2022-11-29T04:51:07.746Z,2.23
2022-11-29T04:53:49.473Z,2.19
2022-11-29T04:56:36.803Z,2.21
2022-11-29T04:59:23.265Z,2.23
2022-11-29T05:02:28.798Z,2.25
2022-11-29T05:04:59.122Z,2.23
2022-11-29T05:08:10.713Z,2.26
2022-11-29T05:11:08.398Z,2.26
2022-11-29T05:13:59.670Z,2.24
2022-11-29T05:16:33.087Z,2.27
2022-11-29T05:19:18.359Z,2.25
2022-11-29T05:22:13.014Z,2.23
2022-11-29T05:24:46.514Z,2.26
2022-11-29T05:27:37.843Z,2.31
2022-11-29T05:30:14.184Z,2.35
2022-11-29T05:33:02.845Z,2.33
2022-11-29T05:35:50.875Z,2.37
2022-11-29T05:38:40.459Z,2.42
2022-11-29T05:41:39.502Z,2.43
2022-11-29T05:44:15.561Z,2.47
2022-11-29T05:46:57.248Z,2.49
2022-11-29T05:49:46.561Z,2.48
2022-11-29T05:52:25.102Z,2.52
2022-11-29T05:55:14.002Z,2.56
2022-11-29T05:57:43.976Z,2.53
2022-11-29T06:00:14.631Z,2.58
2022-11-29T06:03:06.335Z,2.57
2022-11-29T06:05:58.421Z,2.57
2022-11-29T06:08:44.657Z,2.59
2022-11-29T06:11:37.719Z,2.56
2022-11-29T06:14:24.410Z,2.57
2022-11-29T06:17:49.910Z,2.58
2022-11-29T06:20:38.181Z,2.54
2022-11-29T06:23:30.158Z,2.54
2022-11-29T06:26:03.483Z,2.52
2022-11-29T06:28:51.843Z,2.57
2022-11-29T06:31:18.895Z,2.51
2022-11-29T06:34:07.971Z,2.50
2022-11-29T06:36:43.553Z,2.53
2022-11-29T06:39:11.415Z,2.56
2022-11-29T06:41:40.653Z,2.57
2022-11-29T06:44:08.656Z,2.60
2022-11-29T06:46:40.959Z,2.58
2022-11-29T06:49:19.347Z,2.64
2022-11-29T06:52:02.555Z,2.65
2022-11-29T06:55:08.402Z,2.68
2022-11-29T06:57:47.372Z,2.74
2022-11-29T07:00:19.457Z,2.75
2022-11-29T07:03:08.088Z,2.81
2022-11-29T07:05:38.692Z,2.82
2022-11-29T07:08:19.132Z,2.89
2022-11-29T07:10:50.138Z,2.92
2022-11-29T07:13:18.869Z,2.95
2022-11-29T07:16:06.584Z,3.04
2022-11-29T07:18:58.819Z,3.13
2022-11-29T07:21:38.205Z,3.10
2022-11-29T07:24:08.172Z,3.14
2022-11-29T07:26:46.430Z,3.30
2022-11-29T07:29:47.880Z,3.72
2022-11-29T07:32:59.864Z,3.63
2022-11-29T07:35:45.685Z,3.60
2022-11-29T07:38:22.150Z,3.55
2022-11-29T07:41:04.853Z,3.49
2022-11-29T07:43:56.895Z,3.44
2022-11-29T07:46:25.629Z,3.30
2022-11-29T07:48:55.484Z,3.32
2022-11-29T07:51:22.812Z,3.31
2022-11-29T07:53:50.160Z,3.29
2022-11-29T07:56:17.337Z,3.29
2022-11-29T07:58:44.887Z,3.35
2022-11-29T08:01:12.037Z,3.34
2022-11-29T08:03:41.651Z,3.33
2022-11-29T08:06:09.073Z,3.34
2022-11-29T08:08:43.898Z,3.33
2022-11-29T08:11:13.004Z,3.25
2022-11-29T08:13:40.294Z,3.28
2022-11-29T08:16:07.684Z,3.25
2022-11-29T08:18:36.565Z,3.29
2022-11-29T08:21:07.552Z,3.31
2022-11-29T08:23:34.864Z,3.38
2022-11-29T08:26:05.557Z,3.40
2022-11-29T08:28:32.868Z,3.48
2022-11-29T08:31:07.997Z,3.58
2022-11-29T08:33:37.517Z,3.51
2022-11-29T08:36:06.405Z,3.59
2022-11-29T08:38:38.477Z,3.58
2022-11-29T08:41:09.671Z,3.54
2022-11-29T08:43:37.074Z,3.50
2022-11-29T08:46:04.578Z,3.54
2022-11-29T08:48:32.257Z,3.57
2022-11-29T08:50:59.272Z,3.52
2022-11-29T08:53:43.198Z,3.49
2022-11-29T08:59:06.224Z,3.50
2022-11-29T09:01:34.423Z,3.40
2022-11-29T09:04:07.097Z,3.40
2022-11-29T09:06:39.577Z,3.40
2022-11-29T09:09:07.281Z,3.35
2022-11-29T09:11:36.219Z,3.27
2022-11-29T09:14:12.083Z,3.30
2022-11-29T09:16:39.112Z,3.26
2022-11-29T09:19:07.312Z,3.21
2022-11-29T09:21:36.800Z,3.30
2022-11-29T09:24:06.569Z,3.36
2022-11-29T09:26:38.098Z,3.33
2022-11-29T09:29:06.681Z,3.39
2022-11-29T09:31:35.075Z,3.43
2022-11-29T09:34:02.635Z,3.44
2022-11-29T09:36:31.004Z,3.47
2022-11-29T09:39:02.936Z,3.47
2022-11-29T09:41:48.333Z,3.49
2022-11-29T09:44:20.266Z,3.61
2022-11-29T09:47:17.141Z,3.73
2022-11-29T09:50:09.442Z,3.76
2022-11-29T09:52:58.476Z,3.93
2022-11-29T09:55:55.982Z,3.95
2022-11-29T09:58:31.940Z,4.05
2022-11-29T10:01:08.406Z,4.16
2022-11-29T10:03:49.109Z,4.25
2022-11-29T10:06:29.179Z,4.47
2022-11-29T10:09:04.251Z,4.40
2022-11-29T10:11:54.476Z,4.34
2022-11-29T10:14:27.321Z,4.40
2022-11-29T10:17:29.318Z,4.36
2022-11-29T10:20:03.600Z,4.58
2022-11-29T10:22:43.994Z,4.69
2022-11-29T10:25:20.359Z,4.61
2022-11-29T10:27:47.626Z,4.53
2022-11-29T10:30:16.213Z,4.69
2022-11-29T10:32:46.854Z,4.69
2022-11-29T10:35:20.709Z,4.93
2022-11-29T10:38:22.278Z,4.81
2022-11-29T10:40:39.897Z,4.60
2022-11-29T10:43:09.057Z,4.48
2022-11-29T10:45:46.011Z,4.38
2022-11-29T10:48:19.259Z,4.31
2022-11-29T10:50:48.829Z,4.31
2022-11-29T10:53:19.969Z,4.27
2022-11-29T10:55:56.181Z,4.17
2022-11-29T10:58:28.275Z,4.23
2022-11-29T11:01:07.022Z,4.19
2022-11-29T11:03:42.821Z,4.13
2022-11-29T11:06:21.394Z,4.21
2022-11-29T11:08:55.556Z,4.24
2022-11-29T11:11:27.153Z,4.32
2022-11-29T11:14:21.998Z,4.44
2022-11-29T11:16:49.573Z,4.28
2022-11-29T11:19:34.575Z,4.25
2022-11-29T11:22:03.313Z,4.21
2022-11-29T11:24:33.487Z,4.19
2022-11-29T11:27:01.440Z,4.25
2022-11-29T11:29:41.805Z,4.31
2022-11-29T11:32:20.245Z,4.19
2022-11-29T11:34:56.631Z,4.21
2022-11-29T11:37:32.452Z,4.22
2022-11-29T11:40:18.856Z,4.20
2022-11-29T11:42:46.464Z,4.15
2022-11-29T11:45:13.718Z,4.12
2022-11-29T11:47:51.881Z,4.15
2022-11-29T11:50:32.761Z,4.10
2022-11-29T11:53:07.114Z,4.01
2022-11-29T11:55:39.597Z,4.09
2022-11-29T11:58:16.189Z,4.21
2022-11-29T12:01:08.105Z,4.11
2022-11-29T12:03:56.899Z,4.16
2022-11-29T12:06:40.037Z,4.12
2022-11-29T12:09:25.331Z,4.22
2022-11-29T12:12:16.306Z,4.25
2022-11-29T12:15:02.025Z,4.27
2022-11-29T12:17:40.791Z,4.25
2022-11-29T12:20:13.864Z,4.29
2022-11-29T12:22:53.309Z,4.31
2022-11-29T12:25:32.297Z,4.38
2022-11-29T12:27:59.854Z,4.47
2022-11-29T12:30:27.133Z,4.46
2022-11-29T12:33:37.914Z,4.57
2022-11-29T12:36:10.581Z,4.66
2022-11-29T12:39:14.032Z,4.61
2022-11-29T12:41:53.786Z,4.77
2022-11-29T12:44:37.754Z,4.87
2022-11-29T12:47:35.325Z,4.80
2022-11-29T12:50:07.621Z,4.84
2022-11-29T12:53:00.169Z,4.86
2022-11-29T12:55:46.397Z,4.98
2022-11-29T12:58:30.495Z,4.89
2022-11-29T13:01:26.339Z,4.88
2022-11-29T13:04:08.245Z,4.96
2022-11-29T13:06:55.818Z,4.91
2022-11-29T13:09:29.486Z,4.92
2022-11-29T13:12:13.051Z,4.95
2022-11-29T13:15:02.297Z,4.90
2022-11-29T13:17:40.140Z,4.77
2022-11-29T13:20:33.678Z,4.78
2022-11-29T13:23:45.723Z,4.74
2022-11-29T13:26:16.699Z,4.70
2022-11-29T13:28:46.655Z,4.65
2022-11-29T13:31:25.567Z,4.67
2022-11-29T13:33:58.913Z,4.64
2022-11-29T13:36:50.873Z,4.63
2022-11-29T13:39:58.206Z,4.51
2022-11-29T13:42:45.453Z,4.56
2022-11-29T13:45:31.828Z,4.55
2022-11-29T13:48:01.245Z,4.49
2022-11-29T13:50:36.343Z,4.48
2022-11-29T13:53:11.872Z,4.47
2022-11-29T13:55:51.734Z,4.50
2022-11-29T13:58:21.422Z,4.51
2022-11-29T14:00:52.239Z,4.49
2022-11-29T14:03:26.140Z,4.45
2022-11-29T14:06:04.833Z,4.44
2022-11-29T14:11:43.888Z,4.38
2022-11-29T14:14:21.255Z,4.29
2022-11-29T14:17:05.112Z,4.24
2022-11-29T14:19:34.638Z,4.21
2022-11-29T14:22:01.925Z,4.18
2022-11-29T14:24:32.047Z,4.16
2022-11-29T14:27:14.585Z,4.09
2022-11-29T14:29:50.899Z,4.06
2022-11-29T14:32:24.316Z,3.97
2022-11-29T14:35:12.759Z,3.83
2022-11-29T14:38:06.591Z,3.82
2022-11-29T14:40:45.810Z,3.73
2022-11-29T14:43:22.471Z,3.69
2022-11-29T14:46:28.983Z,3.56
2022-11-29T14:48:56.774Z,3.47
2022-11-29T14:51:26.667Z,3.41
2022-11-29T14:54:15.429Z,3.33
2022-11-29T14:56:45.008Z,3.29
2022-11-29T14:59:40.409Z,3.21
2022-11-29T15:02:12.799Z,3.12
2022-11-29T15:04:43.322Z,3.08
2022-11-29T15:07:17.351Z,3.05
2022-11-29T15:09:48.805Z,3.03
2022-11-29T15:12:31.903Z,3.00
2022-11-29T15:15:30.359Z,2.96
2022-11-29T15:18:22.230Z,2.88
2022-11-29T15:21:03.913Z,2.87
2022-11-29T15:23:41.450Z,2.87
2022-11-29T15:26:21.032Z,2.82
2022-11-29T15:28:50.451Z,2.79
2022-11-29T15:31:20.585Z,2.74
2022-11-29T15:33:49.744Z,2.71
2022-11-29T15:36:22.656Z,2.66
2022-11-29T15:38:52.240Z,2.64
2022-11-29T15:41:26.886Z,2.59
2022-11-29T15:43:58.265Z,2.55
2022-11-29T15:46:27.758Z,2.49
2022-11-29T15:48:56.136Z,2.51
2022-11-29T15:51:37.626Z,2.48
2022-11-29T15:54:13.996Z,2.45
2022-11-29T15:56:49.604Z,2.40
2022-11-29T15:59:34.614Z,2.36
2022-11-29T16:02:16.941Z,2.32
2022-11-29T16:04:47.351Z,2.29
2022-11-29T16:07:18.813Z,2.31
2022-11-29T16:09:52.088Z,2.26
2022-11-29T16:12:19.532Z,2.23
2022-11-29T16:15:01.226Z,2.21
2022-11-29T16:17:36.565Z,2.16
2022-11-29T16:20:19.422Z,2.15
2022-11-29T16:23:04.146Z,2.09
2022-11-29T16:25:37.356Z,2.13
2022-11-29T16:28:13.008Z,2.12
2022-11-29T16:30:44.026Z,2.11
2022-11-29T16:33:24.191Z,2.10
2022-11-29T16:36:02.606Z,2.05
2022-11-29T16:38:30.339Z,2.00
2022-11-29T16:41:08.634Z,1.97
2022-11-29T16:43:47.598Z,1.96
2022-11-29T16:46:30.302Z,1.89
2022-11-29T16:49:00.944Z,1.94
2022-11-29T16:51:39.146Z,1.94
2022-11-29T16:54:23.424Z,1.88
2022-11-29T16:56:53.277Z,1.90
2022-11-29T16:59:27.435Z,1.87
2022-11-29T17:01:57.104Z,1.83
2022-11-29T17:04:25.875Z,1.90
2022-11-29T17:06:57.966Z,1.89
2022-11-29T17:09:28.313Z,1.90
2022-11-29T17:12:01.232Z,1.90
2022-11-29T17:14:29.559Z,1.82
2022-11-29T17:16:57.417Z,1.75
2022-11-29T17:19:29.714Z,1.76
2022-11-29T17:21:57.318Z,1.71
2022-11-29T17:24:24.986Z,1.66
2022-11-29T17:26:52.601Z,1.75
2022-11-29T17:29:20.519Z,1.72
2022-11-29T17:31:56.559Z,1.66
2022-11-29T17:34:24.959Z,1.65
2022-11-29T17:36:55.043Z,1.64
2022-11-29T17:39:23.980Z,1.66
2022-11-29T17:41:51.959Z,1.68
2022-11-29T17:44:19.949Z,1.63
2022-11-29T17:46:50.405Z,1.60
2022-11-29T17:49:38.596Z,1.52
2022-11-29T17:52:05.854Z,1.43
2022-11-29T17:54:33.657Z,1.40
2022-11-29T17:57:04.127Z,1.45
2022-11-29T17:59:32.064Z,1.42
2022-11-29T18:02:04.998Z,1.41
2022-11-29T18:04:35.146Z,1.43
2022-11-29T18:07:03.136Z,1.42
2022-11-29T18:09:31.092Z,1.46
2022-11-29T18:12:02.671Z,1.42
2022-11-29T18:17:12.942Z,1.36
2022-11-29T18:19:43.171Z,1.37
2022-11-29T18:22:11.250Z,1.36
2022-11-29T18:24:44.737Z,1.32
2022-11-29T18:27:12.368Z,1.22
2022-11-29T18:29:40.619Z,1.17
2022-11-29T18:32:08.631Z,1.07
2022-11-29T18:34:36.949Z,1.01
2022-11-29T18:37:05.218Z,0.96
2022-11-29T18:39:33.236Z,0.96
2022-11-29T18:42:01.128Z,0.97
2022-11-29T18:44:33.349Z,0.97
2022-11-29T18:47:04.456Z,0.90
2022-11-29T18:49:32.321Z,0.92
2022-11-29T18:52:03.719Z,0.87
2022-11-29T18:54:31.581Z,0.83
2022-11-29T18:56:59.370Z,0.78
2022-11-29T18:59:30.777Z,0.68
2022-11-29T19:01:59.395Z,0.68
2022-11-29T19:04:27.971Z,0.79
2022-11-29T19:06:58.122Z,0.72
2022-11-29T19:09:26.175Z,0.63
2022-11-29T19:11:57.126Z,0.58
2022-11-29T19:14:25.357Z,0.58
2022-11-29T19:16:53.558Z,0.55
2022-11-29T19:19:23.467Z,0.52
2022-11-29T19:21:51.881Z,0.56
2022-11-29T19:24:30.064Z,0.54
2022-11-29T19:26:58.167Z,0.56
2022-11-29T19:29:26.417Z,0.63
2022-11-29T19:31:55.717Z,0.72
2022-11-29T19:34:24.402Z,0.72
2022-11-29T19:36:55.243Z,0.73
2022-11-29T19:39:29.312Z,0.91
2022-11-29T19:41:57.448Z,1.01
2022-11-29T19:44:29.886Z,1.06
2022-11-29T19:46:59.462Z,1.10
2022-11-29T19:49:27.980Z,1.02
2022-11-29T19:51:56.092Z,1.00
2022-11-29T19:54:24.304Z,0.97
2022-11-29T19:56:52.970Z,0.93
2022-11-29T19:59:23.487Z,0.90
2022-11-29T20:01:52.107Z,0.80
2022-11-29T20:04:20.744Z,0.73
2022-11-29T20:06:52.121Z,0.70
2022-11-29T20:09:22.917Z,0.68
2022-11-29T20:11:51.969Z,0.63
2022-11-29T20:14:25.303Z,0.54
2022-11-29T20:16:55.317Z,0.50
2022-11-29T20:19:24.019Z,0.56
2022-11-29T20:21:53.086Z,0.53
2022-11-29T20:24:21.797Z,0.44
2022-11-29T20:26:50.368Z,0.43
2022-11-29T20:29:22.485Z,0.35
2022-11-29T20:31:51.372Z,0.29
2022-11-29T20:34:22.303Z,0.28
2022-11-29T20:37:19.507Z,0.27
2022-11-29T20:40:19.721Z,0.25
2022-11-29T20:43:04.370Z,0.28
2022-11-29T20:45:35.050Z,0.26
2022-11-29T20:48:19.944Z,0.24
2022-11-29T20:51:00.664Z,0.16
2022-11-29T20:53:31.271Z,0.16
2022-11-29T20:56:01.320Z,0.24
2022-11-29T20:58:29.570Z,0.23
2022-11-29T21:00:59.798Z,0.24
2022-11-29T21:03:29.484Z,0.28
2022-11-29T21:05:58.558Z,0.24
2022-11-29T21:08:27.241Z,0.24
2022-11-29T21:10:55.573Z,0.28
2022-11-29T21:13:23.763Z,0.29
2022-11-29T21:15:54.615Z,0.38
2022-11-29T21:18:25.443Z,0.43
2022-11-29T21:21:28.750Z,0.43
2022-11-29T21:23:57.661Z,0.44
2022-11-29T21:26:37.160Z,0.43
2022-11-29T21:29:10.280Z,0.44
2022-11-29T21:31:37.965Z,0.47
2022-11-29T21:34:08.920Z,0.50
2022-11-29T21:36:37.567Z,0.55
2022-11-29T21:39:10.937Z,0.61
2022-11-29T21:41:39.028Z,0.65
2022-11-29T21:44:07.744Z,0.71
2022-11-29T21:46:35.538Z,0.75
2022-11-29T21:49:02.841Z,0.78
2022-11-29T21:51:30.138Z,0.81
2022-11-29T21:53:57.143Z,0.80
2022-11-29T21:56:24.614Z,0.77
2022-11-29T21:58:51.672Z,0.75
2022-11-29T22:01:20.659Z,0.77
2022-11-29T22:03:48.185Z,0.78
2022-11-29T22:06:24.388Z,0.83
2022-11-29T22:08:51.794Z,0.87
2022-11-29T22:11:36.622Z,0.94
2022-11-29T22:14:18.874Z,0.98
2022-11-29T22:16:53.878Z,1.01
2022-11-29T22:19:28.475Z,1.03
2022-11-29T22:22:01.531Z,1.06
2022-11-29T22:24:32.168Z,1.08
2022-11-29T22:26:59.883Z,1.12
2022-11-29T22:29:29.717Z,1.13
2022-11-29T22:31:59.381Z,1.13
2022-11-29T22:34:27.617Z,1.14
2022-11-29T22:36:56.354Z,1.10
2022-11-29T22:39:24.161Z,1.06
2022-11-29T22:42:01.219Z,1.02
2022-11-29T22:44:30.354Z,1.00
2022-11-29T22:46:58.362Z,1.03
2022-11-29T22:49:25.835Z,1.03
2022-11-29T22:51:53.854Z,1.00
2022-11-29T22:54:21.134Z,0.92
2022-11-29T22:56:48.901Z,0.90
2022-11-29T22:59:16.008Z,0.92
2022-11-29T23:01:44.145Z,0.87
2022-11-29T23:04:13.207Z,0.85
2022-11-29T23:06:45.045Z,0.78
2022-11-29T23:09:16.575Z,0.71
2022-11-29T23:11:48.544Z,0.71
2022-11-29T23:14:16.106Z,0.64
2022-11-29T23:16:43.686Z,0.59
2022-11-29T23:19:10.746Z,0.55
2022-11-29T23:21:40.102Z,0.51
2022-11-29T23:24:07.416Z,0.42
2022-11-29T23:26:40.359Z,0.38
2022-11-29T23:29:10.246Z,0.35
2022-11-29T23:31:37.789Z,0.30
2022-11-29T23:34:05.497Z,0.26
2022-11-29T23:36:33.472Z,0.25
2022-11-29T23:39:00.976Z,0.19
2022-11-29T23:41:28.410Z,0.09
2022-11-29T23:43:55.392Z,0.03
2022-11-29T23:46:24.079Z,-0.03
2022-11-29T23:48:51.319Z,-0.10
2022-11-29T23:51:19.761Z,-0.08
2022-11-29T23:53:50.958Z,-0.08
2022-11-29T23:56:19.962Z,-0.08
2022-11-29T23:58:47.300Z,-0.03
